sensor_id;sensor_type;location;lat;lon;timestamp;pressure;altitude;pressure_sealevel;temperature;humidity
9750;BME280;4914;43.218;27.908;2022-11-14T00:00:24;102050.75;;;9.03;100.00
9750;BME280;4914;43.218;27.908;2022-11-14T00:02:51;102056.28;;;8.99;100.00
9750;BME280;4914;43.218;27.908;2022-11-14T00:05:20;102049.25;;;8.98;100.00
9750;BME280;4914;43.218;27.908;2022-11-14T00:07:47;102050.34;;;8.94;100.00
9750;BME280;4914;43.218;27.908;2022-11-14T00:10:14;102049.56;;;8.92;100.00
9750;BME280;4914;43.218;27.908;2022-11-14T00:12:41;102046.50;;;9.01;100.00
9750;BME280;4914;43.218;27.908;2022-11-14T00:15:09;102046.94;;;8.92;100.00
9750;BME280;4914;43.218;27.908;2022-11-14T00:17:36;102051.22;;;8.75;100.00
9750;BME280;4914;43.218;27.908;2022-11-14T00:20:05;102045.41;;;8.67;100.00
9750;BME280;4914;43.218;27.908;2022-11-14T00:22:33;102045.69;;;8.61;100.00
9750;BME280;4914;43.218;27.908;2022-11-14T00:25:00;102041.91;;;8.67;100.00
9750;BME280;4914;43.218;27.908;2022-11-14T00:27:27;102044.47;;;8.68;100.00
9750;BME280;4914;43.218;27.908;2022-11-14T00:29:54;102040.34;;;8.63;100.00
9750;BME280;4914;43.218;27.908;2022-11-14T00:32:21;102041.06;;;8.66;100.00
9750;BME280;4914;43.218;27.908;2022-11-14T00:34:48;102035.59;;;8.88;100.00
9750;BME280;4914;43.218;27.908;2022-11-14T00:37:15;102033.88;;;8.68;100.00
9750;BME280;4914;43.218;27.908;2022-11-14T00:39:43;102038.63;;;8.62;100.00
9750;BME280;4914;43.218;27.908;2022-11-14T00:42:10;102037.09;;;8.56;100.00
9750;BME280;4914;43.218;27.908;2022-11-14T00:44:37;102031.09;;;8.53;100.00
9750;BME280;4914;43.218;27.908;2022-11-14T00:47:04;102028.56;;;8.50;100.00
9750;BME280;4914;43.218;27.908;2022-11-14T00:49:31;102031.53;;;8.44;100.00
9750;BME280;4914;43.218;27.908;2022-11-14T00:51:58;102027.25;;;8.40;100.00
9750;BME280;4914;43.218;27.908;2022-11-14T00:54:24;102022.41;;;8.49;100.00
9750;BME280;4914;43.218;27.908;2022-11-14T00:56:53;102021.75;;;8.44;100.00
9750;BME280;4914;43.218;27.908;2022-11-14T00:59:20;102029.78;;;8.43;100.00
9750;BME280;4914;43.218;27.908;2022-11-14T01:01:47;102020.34;;;8.37;100.00
9750;BME280;4914;43.218;27.908;2022-11-14T01:04:13;102019.53;;;8.35;100.00
9750;BME280;4914;43.218;27.908;2022-11-14T01:06:40;102015.31;;;8.31;100.00
9750;BME280;4914;43.218;27.908;2022-11-14T01:09:07;102014.25;;;8.35;100.00
9750;BME280;4914;43.218;27.908;2022-11-14T01:11:34;102007.50;;;8.28;100.00
9750;BME280;4914;43.218;27.908;2022-11-14T01:14:04;102010.94;;;8.30;100.00
9750;BME280;4914;43.218;27.908;2022-11-14T01:16:32;102006.69;;;8.26;100.00
9750;BME280;4914;43.218;27.908;2022-11-14T01:19:00;102006.47;;;8.32;100.00
9750;BME280;4914;43.218;27.908;2022-11-14T01:21:27;102007.38;;;8.31;100.00
9750;BME280;4914;43.218;27.908;2022-11-14T01:23:54;102009.81;;;8.36;100.00
9750;BME280;4914;43.218;27.908;2022-11-14T01:26:21;102010.03;;;8.31;100.00
9750;BME280;4914;43.218;27.908;2022-11-14T01:28:48;102009.81;;;8.36;100.00
9750;BME280;4914;43.218;27.908;2022-11-14T01:31:18;102006.97;;;8.40;100.00
9750;BME280;4914;43.218;27.908;2022-11-14T01:33:47;102007.09;;;8.37;100.00
9750;BME280;4914;43.218;27.908;2022-11-14T01:36:15;102001.34;;;8.27;100.00
9750;BME280;4914;43.218;27.908;2022-11-14T01:38:41;101997.19;;;8.22;100.00
9750;BME280;4914;43.218;27.908;2022-11-14T01:41:11;101991.88;;;8.22;100.00
9750;BME280;4914;43.218;27.908;2022-11-14T01:43:39;101997.31;;;8.19;100.00
9750;BME280;4914;43.218;27.908;2022-11-14T01:46:08;101990.47;;;8.15;100.00
9750;BME280;4914;43.218;27.908;2022-11-14T01:48:40;101993.59;;;8.23;100.00
9750;BME280;4914;43.218;27.908;2022-11-14T01:51:16;102004.59;;;8.14;100.00
9750;BME280;4914;43.218;27.908;2022-11-14T01:53:45;101998.25;;;8.18;100.00
9750;BME280;4914;43.218;27.908;2022-11-14T01:56:16;102000.91;;;8.18;100.00
9750;BME280;4914;43.218;27.908;2022-11-14T01:58:49;101998.75;;;8.26;100.00
9750;BME280;4914;43.218;27.908;2022-11-14T02:01:17;101995.06;;;8.30;100.00
9750;BME280;4914;43.218;27.908;2022-11-14T02:03:49;101989.16;;;8.44;100.00
9750;BME280;4914;43.218;27.908;2022-11-14T02:06:20;101989.88;;;8.27;100.00
9750;BME280;4914;43.218;27.908;2022-11-14T02:08:48;101995.34;;;8.24;100.00
9750;BME280;4914;43.218;27.908;2022-11-14T02:11:16;101993.59;;;8.23;100.00
9750;BME280;4914;43.218;27.908;2022-11-14T02:13:43;101985.66;;;8.23;100.00
9750;BME280;4914;43.218;27.908;2022-11-14T02:16:10;101985.53;;;8.26;100.00
9750;BME280;4914;43.218;27.908;2022-11-14T02:18:37;101995.25;;;8.25;100.00
9750;BME280;4914;43.218;27.908;2022-11-14T02:21:05;101991.72;;;8.25;100.00
9750;BME280;4914;43.218;27.908;2022-11-14T02:23:32;101987.47;;;8.22;100.00
9750;BME280;4914;43.218;27.908;2022-11-14T02:25:59;101994.78;;;8.16;100.00
9750;BME280;4914;43.218;27.908;2022-11-14T02:28:26;101991.50;;;8.11;100.00
9750;BME280;4914;43.218;27.908;2022-11-14T02:30:53;101992.03;;;8.19;100.00
9750;BME280;4914;43.218;27.908;2022-11-14T02:33:20;101991.91;;;8.02;100.00
9750;BME280;4914;43.218;27.908;2022-11-14T02:35:47;101988.50;;;8.00;100.00
9750;BME280;4914;43.218;27.908;2022-11-14T02:38:15;101993.63;;;8.03;100.00
9750;BME280;4914;43.218;27.908;2022-11-14T02:40:42;101987.56;;;8.01;100.00
9750;BME280;4914;43.218;27.908;2022-11-14T02:43:09;101980.19;;;8.07;100.00
9750;BME280;4914;43.218;27.908;2022-11-14T02:45:36;101980.63;;;7.98;100.00
9750;BME280;4914;43.218;27.908;2022-11-14T02:48:04;101989.16;;;8.05;100.00
9750;BME280;4914;43.218;27.908;2022-11-14T02:50:31;101987.69;;;7.98;100.00
9750;BME280;4914;43.218;27.908;2022-11-14T02:52:57;101981.47;;;7.99;100.00
9750;BME280;4914;43.218;27.908;2022-11-14T02:55:26;101982.19;;;8.02;100.00
9750;BME280;4914;43.218;27.908;2022-11-14T02:57:52;101981.84;;;7.91;100.00
9750;BME280;4914;43.218;27.908;2022-11-14T03:00:19;101977.38;;;7.92;100.00
9750;BME280;4914;43.218;27.908;2022-11-14T03:02:46;101982.81;;;7.88;100.00
9750;BME280;4914;43.218;27.908;2022-11-14T03:05:13;101984.53;;;7.89;100.00
9750;BME280;4914;43.218;27.908;2022-11-14T03:07:40;101984.78;;;7.83;100.00
9750;BME280;4914;43.218;27.908;2022-11-14T03:10:07;101991.09;;;7.81;100.00
9750;BME280;4914;43.218;27.908;2022-11-14T03:12:36;101989.69;;;7.93;100.00
9750;BME280;4914;43.218;27.908;2022-11-14T03:15:03;101987.44;;;8.04;100.00
9750;BME280;4914;43.218;27.908;2022-11-14T03:17:31;101995.66;;;8.16;100.00
9750;BME280;4914;43.218;27.908;2022-11-14T03:19:58;101980.84;;;8.12;100.00
9750;BME280;4914;43.218;27.908;2022-11-14T03:22:25;101998.38;;;8.35;100.00
9750;BME280;4914;43.218;27.908;2022-11-14T03:24:52;101997.59;;;8.33;100.00
9750;BME280;4914;43.218;27.908;2022-11-14T03:27:20;102000.09;;;8.36;100.00
9750;BME280;4914;43.218;27.908;2022-11-14T03:29:48;101992.22;;;8.35;100.00
9750;BME280;4914;43.218;27.908;2022-11-14T03:32:15;101996.25;;;8.43;100.00
9750;BME280;4914;43.218;27.908;2022-11-14T03:34:42;101994.94;;;8.33;100.00
9750;BME280;4914;43.218;27.908;2022-11-14T03:37:09;101991.63;;;8.28;100.00
9750;BME280;4914;43.218;27.908;2022-11-14T03:39:36;101994.09;;;8.32;100.00
9750;BME280;4914;43.218;27.908;2022-11-14T03:42:03;101992.59;;;8.25;100.00
9750;BME280;4914;43.218;27.908;2022-11-14T03:44:29;101995.59;;;8.18;100.00
9750;BME280;4914;43.218;27.908;2022-11-14T03:46:58;101997.97;;;8.24;100.00
9750;BME280;4914;43.218;27.908;2022-11-14T03:49:25;101992.59;;;8.25;100.00
9750;BME280;4914;43.218;27.908;2022-11-14T03:51:51;101994.31;;;8.26;100.00
9750;BME280;4914;43.218;27.908;2022-11-14T03:54:18;101990.66;;;8.10;100.00
9750;BME280;4914;43.218;27.908;2022-11-14T03:56:45;102000.72;;;8.02;100.00
9750;BME280;4914;43.218;27.908;2022-11-14T03:59:12;102001.06;;;7.95;100.00
9750;BME280;4914;43.218;27.908;2022-11-14T04:01:39;101996.44;;;8.00;100.00
9750;BME280;4914;43.218;27.908;2022-11-14T04:04:07;102004.88;;;7.87;100.00
9750;BME280;4914;43.218;27.908;2022-11-14T04:06:34;102000.66;;;7.83;100.00
9750;BME280;4914;43.218;27.908;2022-11-14T04:09:01;102005.94;;;7.83;100.00
9750;BME280;4914;43.218;27.908;2022-11-14T04:11:28;101994.91;;;7.74;100.00
9750;BME280;4914;43.218;27.908;2022-11-14T04:13:54;101998.28;;;7.77;100.00
9750;BME280;4914;43.218;27.908;2022-11-14T04:16:21;101999.13;;;7.78;100.00
9750;BME280;4914;43.218;27.908;2022-11-14T04:18:48;101994.19;;;7.70;100.00
9750;BME280;4914;43.218;27.908;2022-11-14T04:21:16;102009.00;;;7.74;100.00
9750;BME280;4914;43.218;27.908;2022-11-14T04:23:43;102006.59;;;7.68;100.00
9750;BME280;4914;43.218;27.908;2022-11-14T04:26:10;101997.94;;;7.65;100.00
9750;BME280;4914;43.218;27.908;2022-11-14T04:28:37;102003.97;;;7.68;100.00
9750;BME280;4914;43.218;27.908;2022-11-14T04:31:04;102011.88;;;7.68;100.00
9750;BME280;4914;43.218;27.908;2022-11-14T04:33:31;102002.78;;;7.75;100.00
9750;BME280;4914;43.218;27.908;2022-11-14T04:35:58;102004.63;;;7.73;100.00
9750;BME280;4914;43.218;27.908;2022-11-14T04:38:26;102004.81;;;7.69;100.00
9750;BME280;4914;43.218;27.908;2022-11-14T04:40:53;102010.19;;;7.67;100.00
9750;BME280;4914;43.218;27.908;2022-11-14T04:43:20;102009.19;;;7.70;100.00
9750;BME280;4914;43.218;27.908;2022-11-14T04:45:47;102012.50;;;7.75;100.00
9750;BME280;4914;43.218;27.908;2022-11-14T04:48:14;102016.41;;;7.66;100.00
9750;BME280;4914;43.218;27.908;2022-11-14T04:50:40;102006.69;;;7.67;100.00
9750;BME280;4914;43.218;27.908;2022-11-14T04:53:07;102013.63;;;7.69;100.00
9750;BME280;4914;43.218;27.908;2022-11-14T04:55:35;102015.34;;;7.70;100.00
9750;BME280;4914;43.218;27.908;2022-11-14T04:58:02;102011.97;;;7.67;100.00
9750;BME280;4914;43.218;27.908;2022-11-14T05:00:29;102006.59;;;7.68;100.00
9750;BME280;4914;43.218;27.908;2022-11-14T05:02:58;102010.91;;;7.71;100.00
9750;BME280;4914;43.218;27.908;2022-11-14T05:05:25;102020.78;;;7.67;100.00
9750;BME280;4914;43.218;27.908;2022-11-14T05:07:53;102023.78;;;7.78;100.00
9750;BME280;4914;43.218;27.908;2022-11-14T05:10:19;102021.09;;;7.80;100.00
9750;BME280;4914;43.218;27.908;2022-11-14T05:12:48;102027.34;;;7.77;100.00
9750;BME280;4914;43.218;27.908;2022-11-14T05:15:18;102031.53;;;7.83;100.00
9750;BME280;4914;43.218;27.908;2022-11-14T05:17:45;102027.81;;;7.87;100.00
9750;BME280;4914;43.218;27.908;2022-11-14T05:20:12;102038.06;;;7.74;100.00
9750;BME280;4914;43.218;27.908;2022-11-14T05:22:39;102027.09;;;7.83;100.00
9750;BME280;4914;43.218;27.908;2022-11-14T05:25:06;102034.13;;;7.84;100.00
9750;BME280;4914;43.218;27.908;2022-11-14T05:27:33;102028.28;;;7.97;100.00
9750;BME280;4914;43.218;27.908;2022-11-14T05:30:02;102036.41;;;7.92;100.00
9750;BME280;4914;43.218;27.908;2022-11-14T05:32:29;102041.38;;;7.79;100.00
9750;BME280;4914;43.218;27.908;2022-11-14T05:34:56;102044.84;;;7.81;100.00
9750;BME280;4914;43.218;27.908;2022-11-14T05:37:23;102044.44;;;7.70;100.00
9750;BME280;4914;43.218;27.908;2022-11-14T05:39:50;102044.69;;;7.64;100.00
9750;BME280;4914;43.218;27.908;2022-11-14T05:42:16;102046.72;;;7.78;100.00
9750;BME280;4914;43.218;27.908;2022-11-14T05:44:43;102045.56;;;7.85;100.00
9750;BME280;4914;43.218;27.908;2022-11-14T05:47:11;102038.34;;;8.09;100.00
9750;BME280;4914;43.218;27.908;2022-11-14T05:49:38;102042.47;;;7.96;100.00
9750;BME280;4914;43.218;27.908;2022-11-14T05:52:05;102041.09;;;8.06;100.00
9750;BME280;4914;43.218;27.908;2022-11-14T05:54:32;102046.13;;;7.92;100.00
9750;BME280;4914;43.218;27.908;2022-11-14T05:56:59;102042.56;;;8.13;100.00
9750;BME280;4914;43.218;27.908;2022-11-14T05:59:26;102047.47;;;8.02;100.00
9750;BME280;4914;43.218;27.908;2022-11-14T06:01:53;102044.56;;;7.87;100.00
9750;BME280;4914;43.218;27.908;2022-11-14T06:04:21;102057.66;;;7.91;100.00
9750;BME280;4914;43.218;27.908;2022-11-14T06:06:48;102052.63;;;7.84;100.00
9750;BME280;4914;43.218;27.908;2022-11-14T06:09:15;102056.91;;;7.87;100.00
9750;BME280;4914;43.218;27.908;2022-11-14T06:11:42;102044.16;;;7.97;100.00
9750;BME280;4914;43.218;27.908;2022-11-14T06:14:09;102047.25;;;8.06;100.00
9750;BME280;4914;43.218;27.908;2022-11-14T06:16:36;102050.91;;;8.24;100.00
9750;BME280;4914;43.218;27.908;2022-11-14T06:19:03;102046.34;;;8.48;100.00
9750;BME280;4914;43.218;27.908;2022-11-14T06:21:32;102059.53;;;8.87;100.00
9750;BME280;4914;43.218;27.908;2022-11-14T06:23:59;102050.50;;;8.91;100.00
9750;BME280;4914;43.218;27.908;2022-11-14T06:26:27;102052.22;;;9.10;100.00
9750;BME280;4914;43.218;27.908;2022-11-14T06:28:56;102051.66;;;9.21;100.00
9750;BME280;4914;43.218;27.908;2022-11-14T06:31:24;102045.63;;;9.36;100.00
9750;BME280;4914;43.218;27.908;2022-11-14T06:33:51;102046.75;;;9.49;100.00
9750;BME280;4914;43.218;27.908;2022-11-14T06:36:18;102056.28;;;9.71;100.00
9750;BME280;4914;43.218;27.908;2022-11-14T06:38:46;102048.66;;;9.82;100.00
9750;BME280;4914;43.218;27.908;2022-11-14T06:41:17;102048.47;;;10.19;100.00
9750;BME280;4914;43.218;27.908;2022-11-14T06:43:45;102052.19;;;10.32;100.00
9750;BME280;4914;43.218;27.908;2022-11-14T06:46:14;102048.63;;;10.33;100.00
9750;BME280;4914;43.218;27.908;2022-11-14T06:48:42;102052.16;;;10.17;100.00
9750;BME280;4914;43.218;27.908;2022-11-14T06:51:11;102047.63;;;10.19;100.00
9750;BME280;4914;43.218;27.908;2022-11-14T06:53:38;102048.63;;;10.33;100.00
9750;BME280;4914;43.218;27.908;2022-11-14T06:56:08;102049.34;;;10.53;100.00
9750;BME280;4914;43.218;27.908;2022-11-14T06:58:37;102051.00;;;10.71;100.00
9750;BME280;4914;43.218;27.908;2022-11-14T07:01:05;102051.47;;;10.79;100.00
9750;BME280;4914;43.218;27.908;2022-11-14T07:03:32;102037.09;;;10.66;100.00
9750;BME280;4914;43.218;27.908;2022-11-14T07:05:59;102039.63;;;10.69;100.00
9750;BME280;4914;43.218;27.908;2022-11-14T07:08:26;102044.06;;;10.84;100.00
9750;BME280;4914;43.218;27.908;2022-11-14T07:10:53;102046.56;;;10.87;100.00
9750;BME280;4914;43.218;27.908;2022-11-14T07:13:27;102045.78;;;10.69;100.00
9750;BME280;4914;43.218;27.908;2022-11-14T07:15:54;102045.13;;;10.97;100.00
9750;BME280;4914;43.218;27.908;2022-11-14T07:18:21;102046.84;;;10.98;100.00
9750;BME280;4914;43.218;27.908;2022-11-14T07:20:48;102045.28;;;11.25;100.00
9750;BME280;4914;43.218;27.908;2022-11-14T07:23:15;102046.47;;;11.35;100.00
9750;BME280;4914;43.218;27.908;2022-11-14T07:25:41;102047.28;;;11.52;100.00
9750;BME280;4914;43.218;27.908;2022-11-14T07:28:08;102039.09;;;12.00;100.00
9750;BME280;4914;43.218;27.908;2022-11-14T07:30:36;102045.56;;;12.95;100.00
9750;BME280;4914;43.218;27.908;2022-11-14T07:33:03;102045.19;;;13.42;100.00
9750;BME280;4914;43.218;27.908;2022-11-14T07:35:30;102040.94;;;14.55;100.00
9750;BME280;4914;43.218;27.908;2022-11-14T07:38:00;102040.53;;;15.10;100.00
9750;BME280;4914;43.218;27.908;2022-11-14T07:40:28;102047.41;;;15.73;100.00
9750;BME280;4914;43.218;27.908;2022-11-14T07:42:56;102034.78;;;16.88;100.00
9750;BME280;4914;43.218;27.908;2022-11-14T07:45:24;102038.63;;;17.17;100.00
9750;BME280;4914;43.218;27.908;2022-11-14T07:47:56;102037.41;;;17.85;92.51
9750;BME280;4914;43.218;27.908;2022-11-14T07:50:23;102021.28;;;18.26;81.18
9750;BME280;4914;43.218;27.908;2022-11-14T07:52:50;102027.38;;;18.89;76.74
9750;BME280;4914;43.218;27.908;2022-11-14T07:55:17;102035.66;;;19.26;68.92
9750;BME280;4914;43.218;27.908;2022-11-14T07:57:44;102034.72;;;19.56;66.13
9750;BME280;4914;43.218;27.908;2022-11-14T08:00:12;102033.59;;;19.49;64.85
9750;BME280;4914;43.218;27.908;2022-11-14T08:02:39;102042.09;;;19.73;62.71
9750;BME280;4914;43.218;27.908;2022-11-14T08:05:08;102034.03;;;20.29;60.58
9750;BME280;4914;43.218;27.908;2022-11-14T08:07:35;102034.66;;;20.33;59.85
9750;BME280;4914;43.218;27.908;2022-11-14T08:10:02;102034.66;;;20.14;60.78
9750;BME280;4914;43.218;27.908;2022-11-14T08:12:29;102023.25;;;20.39;60.17
9750;BME280;4914;43.218;27.908;2022-11-14T08:14:56;102035.09;;;20.65;58.17
9750;BME280;4914;43.218;27.908;2022-11-14T08:17:23;102030.22;;;20.69;58.64
9750;BME280;4914;43.218;27.908;2022-11-14T08:19:50;102026.13;;;20.37;59.44
9750;BME280;4914;43.218;27.908;2022-11-14T08:22:18;102029.78;;;20.73;58.43
9750;BME280;4914;43.218;27.908;2022-11-14T08:24:45;102027.00;;;21.55;54.80
9750;BME280;4914;43.218;27.908;2022-11-14T08:27:12;102029.56;;;21.57;53.90
9750;BME280;4914;43.218;27.908;2022-11-14T08:29:39;102020.69;;;21.29;55.05
9750;BME280;4914;43.218;27.908;2022-11-14T08:32:05;102022.97;;;20.97;56.25
9750;BME280;4914;43.218;27.908;2022-11-14T08:34:32;102020.47;;;21.13;56.57
9750;BME280;4914;43.218;27.908;2022-11-14T08:37:01;102016.56;;;20.98;57.34
9750;BME280;4914;43.218;27.908;2022-11-14T08:39:30;102011.78;;;21.54;55.48
9750;BME280;4914;43.218;27.908;2022-11-14T08:41:57;102010.72;;;21.47;55.85
9750;BME280;4914;43.218;27.908;2022-11-14T08:44:23;102014.56;;;22.57;52.26
9750;BME280;4914;43.218;27.908;2022-11-14T08:46:50;102011.66;;;22.85;50.83
9750;BME280;4914;43.218;27.908;2022-11-14T08:49:17;102007.78;;;23.78;48.66
9750;BME280;4914;43.218;27.908;2022-11-14T08:51:44;102008.41;;;23.39;49.03
9750;BME280;4914;43.218;27.908;2022-11-14T08:54:11;102003.00;;;23.80;48.41
9750;BME280;4914;43.218;27.908;2022-11-14T08:56:39;102008.59;;;23.95;47.74
9750;BME280;4914;43.218;27.908;2022-11-14T08:59:06;102011.06;;;23.15;49.74
9750;BME280;4914;43.218;27.908;2022-11-14T09:01:32;102001.94;;;23.40;48.67
9750;BME280;4914;43.218;27.908;2022-11-14T09:03:59;101997.06;;;23.84;47.10
9750;BME280;4914;43.218;27.908;2022-11-14T09:06:26;101995.34;;;24.08;46.64
9750;BME280;4914;43.218;27.908;2022-11-14T09:08:53;101990.06;;;22.33;50.11
9750;BME280;4914;43.218;27.908;2022-11-14T09:11:20;102003.72;;;21.98;51.53
9750;BME280;4914;43.218;27.908;2022-11-14T09:13:49;101998.88;;;21.66;52.53
9750;BME280;4914;43.218;27.908;2022-11-14T09:16:15;101997.22;;;21.91;52.15
9750;BME280;4914;43.218;27.908;2022-11-14T09:18:42;101994.00;;;22.13;52.32
9750;BME280;4914;43.218;27.908;2022-11-14T09:21:09;101997.97;;;21.22;54.52
9750;BME280;4914;43.218;27.908;2022-11-14T09:23:36;101994.09;;;19.86;62.79
9750;BME280;4914;43.218;27.908;2022-11-14T09:26:04;101994.75;;;19.51;65.08
9750;BME280;4914;43.218;27.908;2022-11-14T09:28:30;101993.66;;;18.04;79.04
9750;BME280;4914;43.218;27.908;2022-11-14T09:31:02;101992.25;;;16.72;98.93
9750;BME280;4914;43.218;27.908;2022-11-14T09:33:29;101975.75;;;15.99;100.00
9750;BME280;4914;43.218;27.908;2022-11-14T09:35:57;101983.22;;;15.37;100.00
9750;BME280;4914;43.218;27.908;2022-11-14T09:38:23;101985.72;;;15.03;100.00
9750;BME280;4914;43.218;27.908;2022-11-14T09:40:59;101978.59;;;14.67;100.00
9750;BME280;4914;43.218;27.908;2022-11-14T09:43:38;101977.22;;;14.49;100.00
9750;BME280;4914;43.218;27.908;2022-11-14T09:46:17;101974.38;;;14.14;100.00
9750;BME280;4914;43.218;27.908;2022-11-14T09:48:46;101970.19;;;13.97;100.00
9750;BME280;4914;43.218;27.908;2022-11-14T09:51:15;101972.97;;;13.83;100.00
9750;BME280;4914;43.218;27.908;2022-11-14T09:53:48;101961.97;;;13.75;100.00
9750;BME280;4914;43.218;27.908;2022-11-14T09:56:20;101964.88;;;13.85;100.00
9750;BME280;4914;43.218;27.908;2022-11-14T09:58:49;101953.63;;;13.92;100.00
9750;BME280;4914;43.218;27.908;2022-11-14T10:01:29;101956.41;;;14.04;100.00
9750;BME280;4914;43.218;27.908;2022-11-14T10:04:02;101957.16;;;14.06;100.00
9750;BME280;4914;43.218;27.908;2022-11-14T10:06:32;101948.72;;;13.86;100.00
9750;BME280;4914;43.218;27.908;2022-11-14T10:09:24;101955.69;;;13.76;100.00
9750;BME280;4914;43.218;27.908;2022-11-14T10:12:01;101947.22;;;13.70;100.00
9750;BME280;4914;43.218;27.908;2022-11-14T10:14:48;101937.91;;;13.50;100.00
9750;BME280;4914;43.218;27.908;2022-11-14T10:20:24;101932.16;;;13.81;100.00
9750;BME280;4914;43.218;27.908;2022-11-14T10:23:05;101937.22;;;13.86;100.00
9750;BME280;4914;43.218;27.908;2022-11-14T10:25:44;101927.03;;;13.78;100.00
9750;BME280;4914;43.218;27.908;2022-11-14T10:28:22;101926.91;;;13.67;100.00
9750;BME280;4914;43.218;27.908;2022-11-14T10:31:03;101927.13;;;13.51;100.00
9750;BME280;4914;43.218;27.908;2022-11-14T10:33:41;101923.06;;;13.59;100.00
9750;BME280;4914;43.218;27.908;2022-11-14T10:36:18;101928.59;;;13.43;100.00
9750;BME280;4914;43.218;27.908;2022-11-14T10:38:51;101933.94;;;13.43;100.00
9750;BME280;4914;43.218;27.908;2022-11-14T10:41:22;101921.97;;;13.36;100.00
9750;BME280;4914;43.218;27.908;2022-11-14T10:43:52;101927.97;;;13.39;100.00
9750;BME280;4914;43.218;27.908;2022-11-14T10:46:23;101924.28;;;13.15;100.00
9750;BME280;4914;43.218;27.908;2022-11-14T10:48:53;101913.19;;;13.21;100.00
9750;BME280;4914;43.218;27.908;2022-11-14T10:51:25;101916.41;;;13.26;100.00
9750;BME280;4914;43.218;27.908;2022-11-14T10:53:56;101909.97;;;13.16;100.00
9750;BME280;4914;43.218;27.908;2022-11-14T10:56:23;101910.84;;;13.17;100.00
9750;BME280;4914;43.218;27.908;2022-11-14T10:58:50;101915.44;;;13.00;100.00
9750;BME280;4914;43.218;27.908;2022-11-14T11:01:35;101915.44;;;13.00;100.00
9750;BME280;4914;43.218;27.908;2022-11-14T11:04:18;101926.63;;;12.93;100.00
9750;BME280;4914;43.218;27.908;2022-11-14T11:06:46;101915.09;;;12.92;100.00
9750;BME280;4914;43.218;27.908;2022-11-14T11:09:15;101922.78;;;12.84;100.00
9750;BME280;4914;43.218;27.908;2022-11-14T11:12:01;101921.38;;;12.91;100.00
9750;BME280;4914;43.218;27.908;2022-11-14T11:14:29;101925.44;;;12.84;100.00
9750;BME280;4914;43.218;27.908;2022-11-14T11:17:17;101915.19;;;12.91;100.00
9750;BME280;4914;43.218;27.908;2022-11-14T11:19:47;101914.09;;;12.81;100.00
9750;BME280;4914;43.218;27.908;2022-11-14T11:22:34;101916.19;;;12.90;100.00
9750;BME280;4914;43.218;27.908;2022-11-14T11:25:02;101903.63;;;13.04;100.00
9750;BME280;4914;43.218;27.908;2022-11-14T11:28:03;101903.16;;;13.12;100.00
9750;BME280;4914;43.218;27.908;2022-11-14T11:30:30;101899.91;;;13.07;100.00
9750;BME280;4914;43.218;27.908;2022-11-14T11:33:13;101902.19;;;13.13;100.00
9750;BME280;4914;43.218;27.908;2022-11-14T11:35:43;101897.22;;;12.94;100.00
9750;BME280;4914;43.218;27.908;2022-11-14T11:38:11;101899.06;;;13.06;100.00
9750;BME280;4914;43.218;27.908;2022-11-14T11:40:42;101907.63;;;13.12;100.00
9750;BME280;4914;43.218;27.908;2022-11-14T11:43:12;101905.72;;;13.14;100.00
9750;BME280;4914;43.218;27.908;2022-11-14T11:45:44;101908.00;;;13.05;100.00
9750;BME280;4914;43.218;27.908;2022-11-14T11:48:15;101915.88;;;12.94;100.00
9750;BME280;4914;43.218;27.908;2022-11-14T11:50:45;101910.94;;;12.88;100.00
9750;BME280;4914;43.218;27.908;2022-11-14T11:53:16;101905.16;;;12.82;100.00
9750;BME280;4914;43.218;27.908;2022-11-14T11:55:46;101911.56;;;12.79;100.00
9750;BME280;4914;43.218;27.908;2022-11-14T11:58:20;101904.50;;;12.78;100.00
9750;BME280;4914;43.218;27.908;2022-11-14T12:00:50;101901.50;;;12.70;100.00
9750;BME280;4914;43.218;27.908;2022-11-14T12:03:19;101901.88;;;12.64;100.00
9750;BME280;4914;43.218;27.908;2022-11-14T12:05:54;101898.28;;;12.65;100.00
9750;BME280;4914;43.218;27.908;2022-11-14T12:08:30;101897.16;;;12.55;100.00
9750;BME280;4914;43.218;27.908;2022-11-14T12:11:00;101894.19;;;12.59;100.00
9750;BME280;4914;43.218;27.908;2022-11-14T12:13:48;101894.31;;;12.44;100.00
9750;BME280;4914;43.218;27.908;2022-11-14T12:16:44;101891.94;;;12.39;100.00
9750;BME280;4914;43.218;27.908;2022-11-14T12:22:41;101890.91;;;12.42;100.00
9750;BME280;4914;43.218;27.908;2022-11-14T12:25:34;101892.59;;;12.43;100.00
9750;BME280;4914;43.218;27.908;2022-11-14T12:28:19;101881.94;;;12.43;100.00
9750;BME280;4914;43.218;27.908;2022-11-14T12:30:52;101884.03;;;12.38;100.00
9750;BME280;4914;43.218;27.908;2022-11-14T12:33:25;101884.34;;;12.33;100.00
9750;BME280;4914;43.218;27.908;2022-11-14T12:35:56;101888.81;;;12.33;100.00
9750;BME280;4914;43.218;27.908;2022-11-14T12:38:29;101888.28;;;12.28;100.00
9750;BME280;4914;43.218;27.908;2022-11-14T12:40:59;101890.19;;;12.26;100.00
9750;BME280;4914;43.218;27.908;2022-11-14T12:43:31;101890.81;;;12.29;100.00
9750;BME280;4914;43.218;27.908;2022-11-14T12:46:01;101889.22;;;12.27;100.00
9750;BME280;4914;43.218;27.908;2022-11-14T12:48:31;101890.56;;;12.19;100.00
9750;BME280;4914;43.218;27.908;2022-11-14T12:50:59;101890.75;;;12.16;100.00
9750;BME280;4914;43.218;27.908;2022-11-14T12:53:41;101901.78;;;12.10;100.00
9750;BME280;4914;43.218;27.908;2022-11-14T12:59:33;101884.78;;;12.13;100.00
9750;BME280;4914;43.218;27.908;2022-11-14T13:02:35;101886.03;;;12.07;100.00
9750;BME280;4914;43.218;27.908;2022-11-14T13:05:21;101892.38;;;12.05;100.00
9750;BME280;4914;43.218;27.908;2022-11-14T13:08:02;101886.97;;;12.06;100.00
9750;BME280;4914;43.218;27.908;2022-11-14T13:10:37;101888.13;;;12.02;100.00
9750;BME280;4914;43.218;27.908;2022-11-14T13:13:06;101882.59;;;12.05;100.00
9750;BME280;4914;43.218;27.908;2022-11-14T13:15:52;101888.78;;;12.06;100.00
9750;BME280;4914;43.218;27.908;2022-11-14T13:18:50;101889.34;;;11.97;100.00